Latest Weather Observations for Armidale Airport

IDN60801

Issued at 9:22 am EST Sunday 16 June 2019 (issued every 10 minutes, with the page automatically refreshed every 10 minutes)

About weather observations | Map of weather stations | Latest weather observations for NSW | Other Formats
Station Details ID: 056238 Name: ARMIDALE AIRPORT AWS Lat: -30.53 Lon: 151.62 Height: 1079.0 m
Data from the previous 72 hours. | See also: Recent months at Armidale Airport
Date/Time
EST
Temp
°C
App
Temp
°C
Dew
Point
°C
Rel
Hum
%
Delta-T
°C
Wind Press
QNH
hPa
Press
MSL
hPa
Rain since
9am
mm
Dir  Spd
km/h
Gust
km/h
Spd
kts
Gust
kts
16/09:19am 9.2 7.3 9.1 99 0.1 ENE 9 9 5 5 1020.7 1020.4 0.0
16/09:15am 9.0 7.1 8.9 99 0.1 ENE 9 9 5 5 1020.7 1020.4 0.0
16/09:00am 8.4 5.9 8.3 99 0.1 ENE 11 13 6 7 1020.8 1020.6 0.2
16/08:35am 8.5 6.4 8.4 99 0.1 NE 9 13 5 7 1020.9 1020.7 0.2
16/08:30am 8.4 6.3 8.3 99 0.1 NE 9 13 5 7 1020.9 1020.7 0.2
16/08:18am 8.4 6.3 8.3 99 0.1 ENE 9 13 5 7 1021.0 1020.8 0.2
16/08:00am 7.8 5.2 7.7 99 0.1 ENE 11 13 6 7 1021.1 1020.9 0.2
16/07:30am 7.3 4.9 7.2 99 0.0 ENE 9 13 5 7 1021.0 1020.8 0.2
16/07:03am 6.7 3.8 6.6 99 0.0 ENE 11 13 6 7 1020.8 1020.6 0.2
16/07:00am 6.5 3.6 6.4 99 0.0 ENE 11 13 6 7 1020.7 1020.4 0.2
16/06:48am 5.2 2.0 5.1 99 0.0 ENE 11 13 6 7 1020.4 1020.1 0.2
16/06:30am 6.4 3.1 6.3 99 0.0 ENE 13 15 7 8 1020.0 1019.8 0.2
16/06:00am 6.5 3.2 6.4 99 0.0 NE 13 15 7 8 1020.1 1019.9 0.0
16/05:30am 5.7 2.6 5.6 99 0.0 NE 11 13 6 7 1019.8 1019.5 0.0
16/05:03am 6.2 2.8 6.1 99 0.0 NE 13 15 7 8 1019.5 1019.2 0.0
16/05:00am 6.1 2.7 6.0 99 0.0 NE 13 15 7 8 1019.5 1019.2 0.0
16/04:49am 6.3 2.6 6.2 99 0.0 NE 15 17 8 9 1019.4 1019.1 0.0
16/04:30am 6.0 2.6 5.9 99 0.0 NE 13 15 7 8 1019.5 1019.2 0.0
16/04:00am 6.9 3.3 6.8 99 0.0 ENE 15 17 8 9 1019.4 1019.1 0.0
16/03:30am 7.3 3.8 7.2 99 0.0 ENE 15 17 8 9 1019.6 1019.3 0.0
16/03:00am 7.4 3.9 7.3 99 0.0 ENE 15 17 8 9 1019.7 1019.4 0.0
16/02:30am 6.7 3.4 6.6 99 0.0 ENE 13 15 7 8 1019.9 1019.6 0.0
16/02:00am 6.8 3.6 6.7 99 0.0 NE 13 17 7 9 1020.1 1019.9 0.0
16/01:30am 6.6 3.7 6.5 99 0.0 NE 11 13 6 7 1020.3 1020.0 0.0
16/01:00am 6.9 3.7 6.8 99 0.0 NE 13 15 7 8 1020.4 1020.1 0.0
16/12:30am 7.9 4.9 7.8 99 0.1 ENE 13 19 7 10 1020.4 1020.1 0.0
16/12:00am 8.0 5.0 7.9 99 0.1 E 13 17 7 9 1020.7 1020.4 0.0
 
Date/Time
EST
Temp
°C
App
Temp
°C
Dew
Point
°C
Rel
Hum
%
Delta-T
°C
Wind Press
QNH
hPa
Press
MSL
hPa
Rain since
9am
mm
Dir  Spd
km/h
Gust
km/h
Spd
kts
Gust
kts
15/11:30pm 7.7 4.7 7.6 99 0.1 E 13 17 7 9 1020.9 1020.7 0.0
15/11:09pm 7.5 4.0 7.4 99 0.0 E 15 20 8 11 1021.1 1020.9 0.0
15/11:02pm 7.0 3.8 6.9 99 0.0 E 13 17 7 9 1021.1 1020.9 0.0
15/11:00pm 6.9 3.7 6.8 99 0.0 E 13 17 7 9 1021.1 1020.9 0.0
15/10:30pm 4.8 1.5 4.7 99 0.0 E 11 13 6 7 1021.3 1021.0 0.0
15/10:00pm 5.9 3.7 5.3 96 0.3 ENE 6 7 3 4 1020.7 1020.4 0.0
15/09:30pm 5.1 2.6 4.5 96 0.3 NE 7 9 4 5 1020.9 1020.7 0.0
15/09:00pm 4.7 1.6 3.4 91 0.6 NNE 9 9 5 5 1020.8 1020.6 0.0
15/08:30pm 5.5 2.4 3.5 87 0.9 NNE 9 11 5 6 1020.8 1020.6 0.0
15/08:00pm 6.0 2.9 3.5 84 1.1 NE 9 11 5 6 1020.8 1020.6 0.0
15/07:30pm 7.6 5.9 5.7 88 0.9 N 4 7 2 4 1020.5 1020.2 0.0
15/07:00pm 8.8 7.9 5.9 82 1.4 CALM 0 0 0 0 1020.5 1020.2 0.0
15/06:30pm 9.0 8.1 5.9 81 1.5 CALM 0 0 0 0 1020.3 1020.0 0.0
15/06:00pm 8.4 5.6 5.0 79 1.6 NW 9 9 5 5 1020.0 1019.8 0.0
15/05:30pm 9.8 7.1 5.4 74 2.1 WNW 9 11 5 6 1019.8 1019.5 0.0
15/05:00pm 11.9 9.0 6.4 69 2.8 WNW 11 15 6 8 1019.7 1019.4 0.0
15/04:30pm 13.3 8.7 6.6 64 3.4 WNW 20 26 11 14 1019.4 1019.1 0.0
15/04:00pm 14.0 10.1 7.1 63 3.6 WNW 17 26 9 14 1019.4 1019.1 0.0
15/03:30pm 15.2 10.0 7.3 59 4.1 WNW 24 32 13 17 1019.1 1018.8 0.0
15/03:00pm 15.6 10.9 7.9 60 4.1 WNW 22 37 12 20 1018.9 1018.6 0.0
15/02:30pm 15.5 9.8 8.3 62 3.9 WNW 28 35 15 19 1018.9 1018.6 0.0
15/02:00pm 15.9 10.6 8.6 62 3.9 WNW 26 35 14 19 1018.9 1018.6 0.0
15/01:30pm 15.6 10.6 7.9 60 4.1 WNW 24 43 13 23 1019.0 1018.7 0.0
15/01:00pm 15.1 10.7 9.0 67 3.3 W 22 35 12 19 1019.5 1019.2 0.0
15/12:30pm 14.3 9.3 8.0 66 3.3 W 24 37 13 20 1019.7 1019.4 0.0
15/12:00pm 14.5 9.9 8.2 66 3.3 W 22 30 12 16 1020.0 1019.8 0.0
15/11:30am 14.5 10.6 8.7 68 3.1 WNW 19 26 10 14 1020.5 1020.2 0.0
15/11:00am 14.2 10.2 8.2 67 3.2 W 19 26 10 14 1020.9 1020.7 0.0
15/10:30am 13.9 10.3 8.3 69 3.0 W 17 24 9 13 1021.1 1020.9 0.0
15/10:00am 14.0 11.5 8.4 69 3.0 WNW 11 17 6 9 1021.3 1021.0 0.0
15/09:30am 13.0 11.7 9.1 77 2.1 NNE 6 9 3 5 1021.3 1021.0 0.0
15/09:00am 11.7 10.2 8.6 81 1.6 NNE 6 7 3 4 1020.8 1020.6 0.0
15/08:30am 10.2 8.5 8.3 88 1.0 NNE 7 9 4 5 1021.1 1020.9 0.0
15/08:00am 10.3 10.4 10.1 99 0.1 CALM 0 0 0 0 1020.8 1020.6 0.0
15/07:30am 6.9 6.2 6.8 99 0.0 CALM 0 4 0 2 1020.7 1020.4 0.0
15/07:00am 5.7 3.9 5.3 97 0.2 NNE 4 7 2 4 1020.3 1020.0 0.0
15/06:30am 7.0 5.9 6.9 99 0.0 NE 2 6 1 3 1019.8 1019.5 0.0
15/06:00am 6.0 3.9 5.6 97 0.2 NE 6 7 3 4 1019.6 1019.3 0.0
15/05:30am 5.2 2.6 4.0 92 0.5 NE 7 9 4 5 1019.4 1019.1 0.0
15/05:00am 5.3 2.4 4.7 96 0.3 ENE 9 9 5 5 1019.1 1018.8 0.0
15/04:30am 4.6 2.1 4.5 99 0.0 NE 7 9 4 5 1019.0 1018.7 0.0
15/04:00am 5.0 2.5 4.9 99 0.0 ENE 7 9 4 5 1019.3 1019.0 0.0
15/03:30am 3.9 0.8 3.8 99 0.0 ENE 9 11 5 6 1019.4 1019.1 0.0
15/03:00am 3.8 0.3 3.5 98 0.1 ENE 11 13 6 7 1019.4 1019.1 0.0
15/02:30am 4.6 1.6 3.9 95 0.3 ENE 9 11 5 6 1019.6 1019.3 0.0
15/02:00am 4.8 2.2 4.1 95 0.3 E 7 9 4 5 1019.7 1019.4 0.0
15/01:30am 5.9 3.1 5.3 96 0.3 ESE 9 9 5 5 1019.9 1019.6 0.0
15/01:00am 6.7 5.7 5.7 93 0.5 CALM 0 0 0 0 1019.6 1019.3 0.0
15/12:30am 7.0 6.1 6.1 94 0.4 CALM 0 0 0 0 1019.8 1019.5 0.0
15/12:00am 7.2 6.5 6.9 98 0.1 CALM 0 0 0 0 1020.0 1019.8 0.0
 
Date/Time
EST
Temp
°C
App
Temp
°C
Dew
Point
°C
Rel
Hum
%
Delta-T
°C
Wind Press
QNH
hPa
Press
MSL
hPa
Rain since
9am
mm
Dir  Spd
km/h
Gust
km/h
Spd
kts
Gust
kts
14/11:30pm 6.7 5.9 6.4 98 0.1 CALM 0 0 0 0 1020.5 1020.2 0.0
14/11:00pm 7.6 6.8 6.7 94 0.4 CALM 0 0 0 0 1020.8 1020.6 0.0
14/10:30pm 7.6 7.0 7.3 98 0.1 CALM 0 0 0 0 1020.8 1020.6 0.0
14/10:00pm 7.7 7.0 7.1 96 0.3 CALM 0 0 0 0 1021.0 1020.8 0.0
14/09:30pm 8.5 8.0 7.7 95 0.4 CALM 0 0 0 0 1021.1 1020.9 0.0
14/09:00pm 8.3 6.9 7.2 93 0.5 WNW 4 7 2 4 1021.1 1020.9 0.0
14/08:30pm 8.2 5.8 6.8 91 0.7 WNW 9 11 5 6 1021.3 1021.0 0.0
14/08:00pm 8.2 5.5 5.8 85 1.2 NW 9 11 5 6 1021.1 1020.9 0.0
14/07:30pm 9.6 7.4 6.3 80 1.6 WNW 7 9 4 5 1021.0 1020.8 0.0
14/07:00pm 10.5 8.2 5.7 72 2.3 NW 7 9 4 5 1020.7 1020.4 0.0
14/06:30pm 11.1 8.9 6.0 71 2.5 NW 7 9 4 5 1020.4 1020.1 0.0
14/06:00pm 10.5 7.4 3.8 63 3.1 WNW 9 11 5 6 1020.4 1020.1 0.0
14/05:30pm 11.6 10.4 4.6 62 3.4 CALM 0 0 0 0 1020.1 1019.9 0.0
14/05:00pm 12.8 10.5 4.8 58 3.9 NW 6 9 3 5 1019.7 1019.4 0.0
14/04:30pm 13.6 10.8 5.3 57 4.1 WNW 9 11 5 6 1019.7 1019.4 0.0
14/04:00pm 14.2 10.8 5.8 57 4.2 W 13 19 7 10 1019.7 1019.4 0.0
14/03:30pm 14.5 10.7 5.6 55 4.5 W 15 19 8 10 1019.4 1019.1 0.0
14/03:00pm 14.9 10.6 5.4 53 4.8 WSW 17 20 9 11 1019.3 1019.0 0.0
14/02:30pm 15.8 11.1 5.1 49 5.4 W 19 24 10 13 1019.1 1018.8 0.0
14/02:00pm 15.8 10.6 3.6 44 5.9 WNW 20 32 11 17 1019.3 1019.0 0.0
14/01:30pm 16.2 10.6 3.6 43 6.2 WNW 22 30 12 16 1019.5 1019.2 0.0
14/01:00pm 16.3 10.9 2.3 39 6.7 WNW 20 28 11 15 1019.7 1019.4 0.0
14/12:30pm 15.8 10.7 3.3 43 6.1 WNW 19 26 10 14 1019.8 1019.5 0.0
14/12:00pm 15.2 9.9 2.1 41 6.2 WNW 19 26 10 14 1020.4 1020.1 0.0
14/11:30am 15.1 9.8 3.0 44 5.8 WNW 20 26 11 14 1020.9 1020.7 0.0
14/11:00am 15.8 11.8 4.8 48 5.5 NW 15 26 8 14 1021.1 1020.9 0.0
14/10:30am 14.6 9.9 3.1 46 5.5 WNW 17 20 9 11 1021.4 1021.1 0.0
14/10:00am 13.8 10.0 5.7 58 4.1 W 15 17 8 9 1021.6 1021.3 0.0
14/09:30am 12.9 9.6 8.0 72 2.6 NW 15 19 8 10 1021.3 1021.0 0.0
14/09:00am 12.4 11.0 10.8 90 0.9 NW 9 13 5 7 1020.9 1020.7 0.0
14/08:30am 10.4 9.4 10.2 99 0.1 WNW 6 7 3 4 1020.8 1020.6 0.0
14/08:10am 9.9 8.8 9.8 99 0.1 W 6 7 3 4 1020.9 1020.7 0.0
14/08:00am 9.2 8.6 9.1 99 0.1 SW 2 6 1 3 1020.9 1020.7 0.0
14/07:56am 8.8 8.1 8.7 99 0.1 SW 2 6 1 3 1020.8 1020.6 0.0
14/07:30am 6.2 4.2 6.1 99 0.0 SW 6 7 3 4 1020.8 1020.6 0.0
14/07:00am 5.3 3.1 5.2 99 0.0 SW 6 7 3 4 1020.6 1020.3 0.0
14/06:30am 5.2 3.0 5.1 99 0.0 SW 6 7 3 4 1020.4 1020.1 0.0
14/06:00am 6.0 3.9 5.9 99 0.0 SW 6 7 3 4 1020.1 1019.9 0.0
14/05:30am 6.6 4.7 6.5 99 0.0 SW 6 7 3 4 1019.7 1019.4 0.0
14/05:05am 7.2 5.4 7.1 99 0.0 SW 6 7 3 4 1019.6 1019.3 0.0
14/05:00am 7.4 5.6 7.3 99 0.0 SW 6 9 3 5 1019.6 1019.3 0.0
14/04:30am 7.9 6.1 7.8 99 0.1 WSW 7 9 4 5 1019.4 1019.1 0.0
14/04:27am 8.0 6.2 7.9 99 0.1 WSW 7 9 4 5 1019.5 1019.2 0.0
14/04:10am 7.1 5.1 7.0 99 0.0 WSW 7 9 4 5 1019.3 1019.0 0.0
14/04:00am 7.6 5.7 7.5 99 0.0 W 7 9 4 5 1019.3 1019.0 0.0
14/03:49am 7.7 5.8 7.6 99 0.1 WNW 7 9 4 5 1019.3 1019.0 0.0
14/03:30am 8.5 6.8 8.4 99 0.1 NW 7 9 4 5 1019.4 1019.1 0.0
14/03:00am 8.2 6.1 8.1 99 0.1 NW 9 11 5 6 1019.4 1019.1 0.0
14/02:30am 8.4 6.7 8.3 99 0.1 NW 7 9 4 5 1019.5 1019.2 0.0
14/02:00am 8.3 6.5 7.9 97 0.2 WNW 7 9 4 5 1019.6 1019.3 0.0
14/01:52am 8.4 5.8 7.6 95 0.4 W 11 15 6 8 1019.7 1019.4 0.0
14/01:30am 9.1 6.6 8.3 95 0.4 WSW 11 13 6 7 1019.9 1019.6 0.0
14/01:02am 10.5 8.3 9.4 93 0.6 WSW 11 13 6 7 1020.0 1019.8 0.0
14/01:00am 10.5 8.3 9.4 93 0.6 WSW 11 13 6 7 1020.0 1019.8 0.0
14/12:30am 10.5 8.7 9.3 92 0.6 WNW 9 13 5 7 1020.0 1019.8 0.0
14/12:00am 9.9 8.3 8.8 93 0.6 WNW 7 11 4 6 1020.4 1020.1 0.0
 
Date/Time
EST
Temp
°C
App
Temp
°C
Dew
Point
°C
Rel
Hum
%
Delta-T
°C
Wind Press
QNH
hPa
Press
MSL
hPa
Rain since
9am
mm
Dir  Spd
km/h
Gust
km/h
Spd
kts
Gust
kts
13/11:30pm 9.6 9.3 8.7 94 0.5 CALM 0 6 0 3 1020.6 1020.3 0.0
13/11:00pm 9.4 7.3 8.2 92 0.6 W 9 11 5 6 1020.7 1020.4 0.0
13/10:30pm 9.4 7.7 8.2 92 0.6 WNW 7 9 4 5 1020.8 1020.6 0.0
13/10:00pm 9.9 8.6 9.1 95 0.4 NW 6 7 3 4 1020.7 1020.4 0.0
13/09:30pm 9.1 7.4 8.3 95 0.4 W 7 11 4 6 1021.0 1020.8 0.0
13/09:00pm 9.1 6.9 7.9 92 0.6 WNW 9 11 5 6 1021.0 1020.8 0.0
13/08:30pm 9.8 6.9 8.2 90 0.8 NW 13 17 7 9 1020.9 1020.7 0.0
13/08:00pm 10.3 7.5 8.4 88 1.0 WNW 13 15 7 8 1020.9 1020.7 0.0
13/07:30pm 10.8 7.7 8.9 88 1.0 WNW 15 17 8 9 1020.8 1020.6 0.0
13/07:00pm 10.5 8.1 8.8 89 0.9 WNW 11 13 6 7 1020.7 1020.4 0.0
13/06:30pm 10.7 8.0 9.0 89 0.9 WNW 13 15 7 8 1020.5 1020.2 0.0
13/06:00pm 11.1 9.1 8.8 86 1.2 WNW 9 11 5 6 1020.4 1020.1 0.0
13/05:30pm 11.5 9.5 8.5 82 1.6 W 9 11 5 6 1020.3 1020.0 0.0
13/05:00pm 12.4 9.7 8.9 79 1.9 WNW 13 19 7 10 1019.8 1019.5 0.0
13/04:30pm 13.5 10.1 9.0 74 2.4 WNW 17 26 9 14 1019.4 1019.1 0.0
13/04:00pm 14.1 10.3 9.1 72 2.7 W 19 28 10 15 1019.7 1019.4 0.0
13/03:30pm 15.0 9.6 9.4 69 3.1 WNW 28 37 15 20 1019.8 1019.5 0.0
13/03:00pm 15.5 11.3 9.6 68 3.2 W 22 30 12 16 1019.5 1019.2 0.0
13/02:30pm 16.9 11.1 9.6 62 4.0 WNW 30 39 16 21 1019.5 1019.2 0.0
13/02:00pm 16.9 11.4 10.5 66 3.6 W 30 41 16 22 1019.5 1019.2 0.0
13/01:30pm 15.8 11.0 10.3 70 3.1 WNW 26 35 14 19 1018.8 1018.5 0.0
13/01:00pm 15.0 9.8 10.4 74 2.6 WNW 28 39 15 21 1019.5 1019.2 0.0
13/12:30pm 13.4 8.2 10.4 82 1.7 W 28 39 15 21 1020.7 1020.4 0.0
13/12:00pm 13.4 6.8 10.0 80 1.9 W 35 50 19 27 1021.0 1020.8 0.0
13/11:30am 13.9 6.9 10.1 78 2.1 WNW 37 50 20 27 1020.9 1020.7 0.0
13/11:00am 14.8 10.0 10.2 74 2.5 WNW 26 39 14 21 1021.8 1021.6 0.0
13/10:50am 14.4 8.9 10.4 77 2.2 WNW 30 39 16 21 1022.0 1021.8 0.0
13/10:30am 14.8 9.7 10.6 76 2.3 WNW 28 39 15 21 1022.1 1021.9 0.0
13/10:16am 13.9 7.3 10.1 78 2.1 WNW 35 48 19 26 1022.5 1022.3 0.0
13/10:00am 13.9 8.7 10.3 79 2.0 WNW 28 35 15 19 1022.2 1022.0 0.0
13/09:30am 12.4 7.7 9.2 81 1.7 WNW 24 35 13 19 1022.2 1022.0 0.0

Other formats

Comma delimited format used in spreadsheet applications
http://www.bom.gov.au/fwo/IDN60801/IDN60801.95773.axf

JavaScript Object Notation format (JSON) in row-major order
http://www.bom.gov.au/fwo/IDN60801/IDN60801.95773.json

Data quality

Most of these data are generated automatically and are frequently updated. Quality checks on data are not normally performed. It is possible for incorrect values to appear. Refer to information at About Latest Weather Observations and please check the disclaimer before using these data.